Time;durP1;ratioP1;P1;durP2;ratioP2;P2;SDS_P1;SDS_P2;PMS_P1;PMS_P2;Temp;Humidity;BMP_temperature;BMP_pressure;BME280_temperature;BME280_humidity;BME280_pressure;Samples;Min_cycle;Max_cycle;Signal;HPM_P1;HPM_P2
2023/04/30 00:00:21;;;;;;;9.65;5.10;;;;;;;;;;5073970;28;20044;-69
2023/04/30 00:02:47;;;;;;;11.20;5.13;;;;;;;;;;5071484;28;20466;-70
2023/04/30 00:05:12;;;;;;;8.85;4.93;;;;;;;;;;5073780;28;20098;-69
2023/04/30 00:07:41;;;;;;;11.80;4.85;;;;;;;;;;5073646;28;20027;-70
2023/04/30 00:10:10;;;;;;;10.32;4.70;;;;;;;;;;5074051;28;20032;-70
2023/04/30 00:12:36;;;;;;;10.68;4.50;;;;;;;;;;5057807;28;20025;-69
2023/04/30 00:15:02;;;;;;;6.75;4.53;;;;;;;;;;5052613;28;20082;-70
2023/04/30 00:17:28;;;;;;;11.15;5.25;;;;;;;;;;5067876;28;20559;-69
2023/04/30 00:19:54;;;;;;;11.55;5.15;;;;;;;;;;5073419;28;20033;-70
2023/04/30 00:22:19;;;;;;;10.23;4.63;;;;;;;;;;5060408;28;20033;-70
2023/04/30 00:24:45;;;;;;;8.35;4.47;;;;;;;;;;5052196;28;20486;-70
2023/04/30 00:27:11;;;;;;;9.27;4.25;;;;;;;;;;5053534;28;20016;-70
2023/04/30 00:29:38;;;;;;;8.52;4.88;;;;;;;;;;5053033;28;20195;-70
2023/04/30 00:32:05;;;;;;;11.02;5.18;;;;;;;;;;5062242;28;20496;-69
2023/04/30 00:34:31;;;;;;;8.00;4.55;;;;;;;;;;5067761;28;20406;-69
2023/04/30 00:36:56;;;;;;;7.78;4.82;;;;;;;;;;5069175;28;20182;-70
2023/04/30 00:39:22;;;;;;;10.00;4.97;;;;;;;;;;5054784;28;20028;-71
2023/04/30 00:41:47;;;;;;;7.10;4.82;;;;;;;;;;5047426;28;20414;-70
2023/04/30 00:44:13;;;;;;;10.07;4.63;;;;;;;;;;5061242;28;20037;-71
2023/04/30 00:46:39;;;;;;;8.60;5.07;;;;;;;;;;5069797;28;20085;-71
2023/04/30 00:49:05;;;;;;;6.07;4.25;;;;;;;;;;5063064;28;20032;-71
2023/04/30 00:51:32;;;;;;;8.40;4.53;;;;;;;;;;5056586;28;20020;-71
2023/04/30 00:54:02;;;;;;;8.00;4.28;;;;;;;;;;5071805;28;20402;-72
2023/04/30 00:56:31;;;;;;;6.78;4.60;;;;;;;;;;5071465;28;20032;-71
2023/04/30 00:58:57;;;;;;;15.25;4.90;;;;;;;;;;5072705;28;20383;-70
2023/04/30 01:01:24;;;;;;;6.82;4.50;;;;;;;;;;5083925;28;20486;-71
2023/04/30 01:03:51;;;;;;;8.10;5.45;;;;;;;;;;5051721;28;20136;-71
2023/04/30 01:06:17;;;;;;;6.78;4.38;;;;;;;;;;5053111;28;20441;-71
2023/04/30 01:08:43;;;;;;;6.82;4.53;;;;;;;;;;5052881;28;20021;-70
2023/04/30 01:11:16;;;;;;;9.07;4.15;;;;;;;;;;5060382;28;20498;-69
2023/04/30 01:14:15;;;;;;;7.57;4.10;;;;;;;;;;5059721;28;20120;-70
2023/04/30 01:17:03;;;;;;;8.23;4.45;;;;;;;;;;5053553;28;20040;-70
2023/04/30 01:19:44;;;;;;;7.38;4.65;;;;;;;;;;5051995;28;20056;-70
2023/04/30 01:22:53;;;;;;;7.07;4.97;;;;;;;;;;5050416;28;20037;-69
2023/04/30 01:25:49;;;;;;;7.43;4.50;;;;;;;;;;5046045;28;20182;-70
2023/04/30 01:28:19;;;;;;;6.55;4.78;;;;;;;;;;5050996;28;20087;-70
2023/04/30 01:30:45;;;;;;;15.85;5.45;;;;;;;;;;5068944;28;20032;-69
2023/04/30 01:33:12;;;;;;;8.10;4.60;;;;;;;;;;5070451;28;20090;-69
2023/04/30 01:35:56;;;;;;;6.63;4.65;;;;;;;;;;5070971;28;20119;-70
2023/04/30 01:38:53;;;;;;;7.40;4.78;;;;;;;;;;5052763;28;20025;-70
2023/04/30 01:41:36;;;;;;;7.40;5.40;;;;;;;;;;5051073;28;20041;-70
2023/04/30 01:44:31;;;;;;;8.35;4.97;;;;;;;;;;5050897;28;20044;-70
2023/04/30 01:47:23;;;;;;;6.85;4.50;;;;;;;;;;5041373;28;20128;-70
2023/04/30 01:50:05;;;;;;;10.18;5.63;;;;;;;;;;5058516;28;20064;-70
2023/04/30 01:52:31;;;;;;;10.33;5.53;;;;;;;;;;5071478;28;20036;-70
2023/04/30 01:55:07;;;;;;;7.38;5.53;;;;;;;;;;5053927;28;20485;-70
2023/04/30 01:57:57;;;;;;;8.25;5.68;;;;;;;;;;5060654;28;20033;-70
2023/04/30 02:00:25;;;;;;;10.52;5.93;;;;;;;;;;5050442;28;20032;-70
2023/04/30 02:02:51;;;;;;;9.73;5.10;;;;;;;;;;5056698;28;20032;-70
2023/04/30 02:05:17;;;;;;;8.57;5.60;;;;;;;;;;5050367;28;20037;-70
2023/04/30 02:07:45;;;;;;;9.50;6.13;;;;;;;;;;5051792;28;20029;-70
2023/04/30 02:10:11;;;;;;;12.52;5.93;;;;;;;;;;5051141;28;20041;-69
2023/04/30 02:12:38;;;;;;;6.55;5.22;;;;;;;;;;5051916;28;20386;-69
2023/04/30 02:15:05;;;;;;;7.32;5.25;;;;;;;;;;5050152;28;20121;-69
2023/04/30 02:17:32;;;;;;;10.30;5.70;;;;;;;;;;5064236;28;20485;-70
2023/04/30 02:19:58;;;;;;;10.13;5.90;;;;;;;;;;5069753;28;20087;-70
2023/04/30 02:22:26;;;;;;;9.32;6.03;;;;;;;;;;5070084;28;20025;-70
2023/04/30 02:24:54;;;;;;;11.85;7.00;;;;;;;;;;5070241;28;20036;-70
2023/04/30 02:27:21;;;;;;;12.55;6.70;;;;;;;;;;5069869;28;20040;-70
2023/04/30 02:29:47;;;;;;;9.43;6.45;;;;;;;;;;5069709;28;20103;-69
2023/04/30 02:32:13;;;;;;;8.88;5.70;;;;;;;;;;5064651;28;20125;-70
2023/04/30 02:34:39;;;;;;;9.52;6.32;;;;;;;;;;5051209;28;20243;-70
2023/04/30 02:37:05;;;;;;;7.95;6.05;;;;;;;;;;5051376;28;20020;-71
2023/04/30 02:39:31;;;;;;;9.60;6.60;;;;;;;;;;5049301;28;20509;-70
2023/04/30 02:41:58;;;;;;;10.55;6.10;;;;;;;;;;5051493;28;20025;-70
2023/04/30 02:44:23;;;;;;;10.15;6.72;;;;;;;;;;5050133;28;20029;-70
2023/04/30 02:46:49;;;;;;;12.32;6.32;;;;;;;;;;5057143;28;20025;-70
2023/04/30 02:49:17;;;;;;;9.57;6.53;;;;;;;;;;5049369;28;20395;-70
2023/04/30 02:51:42;;;;;;;11.10;6.22;;;;;;;;;;5049802;28;20474;-70
2023/04/30 02:54:08;;;;;;;12.48;7.03;;;;;;;;;;5049645;28;20158;-70
2023/04/30 02:56:34;;;;;;;12.77;7.05;;;;;;;;;;5049973;28;20048;-69
2023/04/30 02:59:00;;;;;;;11.98;7.05;;;;;;;;;;5064070;28;20120;-70
2023/04/30 03:01:26;;;;;;;11.63;7.45;;;;;;;;;;5055755;28;20095;-70
2023/04/30 03:03:52;;;;;;;15.35;8.18;;;;;;;;;;5065398;28;20033;-71
2023/04/30 03:06:18;;;;;;;12.13;7.20;;;;;;;;;;5066809;28;20395;-70
2023/04/30 03:08:43;;;;;;;14.05;7.88;;;;;;;;;;5070747;28;20103;-70
2023/04/30 03:11:09;;;;;;;12.38;7.47;;;;;;;;;;5070558;28;20024;-70
2023/04/30 03:13:35;;;;;;;13.07;7.93;;;;;;;;;;5055401;28;20029;-69
2023/04/30 03:16:05;;;;;;;14.82;8.85;;;;;;;;;;5050369;28;20025;-70
2023/04/30 03:18:31;;;;;;;12.35;7.43;;;;;;;;;;5078923;28;20032;-70
2023/04/30 03:20:57;;;;;;;15.38;9.05;;;;;;;;;;5070102;28;20043;-70
2023/04/30 03:23:26;;;;;;;10.95;7.93;;;;;;;;;;5086167;28;20056;-70
2023/04/30 03:25:51;;;;;;;10.43;8.10;;;;;;;;;;5069912;28;20028;-70
2023/04/30 03:28:17;;;;;;;13.88;8.68;;;;;;;;;;5069288;28;20468;-70
2023/04/30 03:30:43;;;;;;;12.80;8.40;;;;;;;;;;5071241;28;20024;-69
2023/04/30 03:33:09;;;;;;;13.88;8.85;;;;;;;;;;5058814;28;20094;-69
2023/04/30 03:35:35;;;;;;;11.23;8.23;;;;;;;;;;5069103;28;20454;-70
2023/04/30 03:38:01;;;;;;;13.63;8.68;;;;;;;;;;5070082;28;20059;-70
2023/04/30 03:40:27;;;;;;;11.90;8.77;;;;;;;;;;5070475;28;20447;-70
2023/04/30 03:42:53;;;;;;;15.75;8.77;;;;;;;;;;5070683;28;20389;-70
2023/04/30 03:45:18;;;;;;;10.07;8.50;;;;;;;;;;5069146;28;20116;-70
2023/04/30 03:47:44;;;;;;;15.20;8.82;;;;;;;;;;5072450;28;20402;-70
2023/04/30 03:50:10;;;;;;;15.20;8.30;;;;;;;;;;5063814;28;20020;-70
2023/04/30 03:52:37;;;;;;;12.23;8.00;;;;;;;;;;5072396;28;20052;-69
2023/04/30 03:55:04;;;;;;;14.07;8.35;;;;;;;;;;5072731;28;20073;-70
2023/04/30 03:57:30;;;;;;;12.27;7.95;;;;;;;;;;5070435;28;20037;-70
2023/04/30 03:59:55;;;;;;;18.65;8.95;;;;;;;;;;5035949;28;20032;-70
2023/04/30 04:02:22;;;;;;;14.43;8.55;;;;;;;;;;5053005;28;20037;-69
2023/04/30 04:04:48;;;;;;;18.42;9.15;;;;;;;;;;5053687;28;20474;-70
2023/04/30 04:07:14;;;;;;;23.15;9.25;;;;;;;;;;5054133;28;20060;-70
2023/04/30 04:09:41;;;;;;;15.43;8.15;;;;;;;;;;5042473;28;20017;-69
2023/04/30 04:12:07;;;;;;;12.38;7.65;;;;;;;;;;5070248;28;20032;-70
2023/04/30 04:14:32;;;;;;;11.20;7.10;;;;;;;;;;5073220;28;20500;-70
2023/04/30 04:16:59;;;;;;;10.18;6.85;;;;;;;;;;5074370;28;20090;-69
2023/04/30 04:19:25;;;;;;;11.68;7.20;;;;;;;;;;5074550;28;20063;-71
2023/04/30 04:21:51;;;;;;;11.10;6.78;;;;;;;;;;5074739;28;20032;-70
2023/04/30 04:24:17;;;;;;;12.70;6.72;;;;;;;;;;5074398;28;20031;-70
2023/04/30 04:26:43;;;;;;;12.38;6.43;;;;;;;;;;5062276;28;20564;-71
2023/04/30 04:29:09;;;;;;;13.77;7.18;;;;;;;;;;5061117;28;20021;-71
2023/04/30 04:31:37;;;;;;;11.75;5.85;;;;;;;;;;5063192;28;20037;-70
2023/04/30 04:34:04;;;;;;;18.92;7.82;;;;;;;;;;5064028;28;20021;-70
2023/04/30 04:36:30;;;;;;;11.90;7.75;;;;;;;;;;5062583;28;20028;-70
2023/04/30 04:39:03;;;;;;;11.32;6.88;;;;;;;;;;5060519;28;20051;-70
2023/04/30 04:41:30;;;;;;;11.02;7.75;;;;;;;;;;5070352;28;20043;-70
2023/04/30 04:43:55;;;;;;;11.55;7.47;;;;;;;;;;5072219;28;20028;-69
2023/04/30 04:46:23;;;;;;;13.77;7.72;;;;;;;;;;5064558;28;20029;-70
2023/04/30 04:48:51;;;;;;;10.65;7.35;;;;;;;;;;5060437;28;20017;-70
2023/04/30 04:51:17;;;;;;;10.13;6.93;;;;;;;;;;5061660;28;20029;-70
2023/04/30 04:53:42;;;;;;;10.45;5.88;;;;;;;;;;5063743;28;20017;-70
2023/04/30 04:56:09;;;;;;;9.45;6.63;;;;;;;;;;5073276;28;20097;-71
2023/04/30 04:58:35;;;;;;;10.50;6.70;;;;;;;;;;5063523;28;20020;-70
2023/04/30 05:01:01;;;;;;;12.98;6.60;;;;;;;;;;5063440;28;20037;-70
2023/04/30 05:03:28;;;;;;;10.13;6.43;;;;;;;;;;5063736;28;20021;-71
2023/04/30 05:05:54;;;;;;;8.63;6.10;;;;;;;;;;5071802;28;20047;-71
2023/04/30 05:08:19;;;;;;;8.50;5.93;;;;;;;;;;5063345;28;20017;-70
2023/04/30 05:10:45;;;;;;;9.68;6.60;;;;;;;;;;5068002;28;20037;-71
2023/04/30 05:13:11;;;;;;;9.27;6.40;;;;;;;;;;5059992;28;20094;-70
2023/04/30 05:15:36;;;;;;;8.27;6.03;;;;;;;;;;5063522;28;20083;-70
2023/04/30 05:18:02;;;;;;;11.40;6.40;;;;;;;;;;5064552;28;20020;-71
2023/04/30 05:20:28;;;;;;;8.88;5.95;;;;;;;;;;5072863;28;20451;-71
2023/04/30 05:22:53;;;;;;;9.77;6.15;;;;;;;;;;5072953;28;20017;-70
2023/04/30 05:25:19;;;;;;;13.80;5.97;;;;;;;;;;5072972;28;20452;-70
2023/04/30 05:27:45;;;;;;;9.20;6.10;;;;;;;;;;5064466;28;20103;-70
2023/04/30 05:30:11;;;;;;;15.90;5.43;;;;;;;;;;5072489;28;20029;-70
2023/04/30 05:32:37;;;;;;;10.35;5.82;;;;;;;;;;5072782;28;20045;-70
2023/04/30 05:35:02;;;;;;;10.38;6.00;;;;;;;;;;5072692;28;20410;-70
2023/04/30 05:37:28;;;;;;;8.18;5.20;;;;;;;;;;5072340;28;20493;-71
2023/04/30 05:39:54;;;;;;;12.35;5.05;;;;;;;;;;5072317;28;20111;-70
2023/04/30 05:42:20;;;;;;;8.57;5.07;;;;;;;;;;5072403;28;20028;-70
2023/04/30 05:44:47;;;;;;;13.77;5.50;;;;;;;;;;5063951;28;20067;-70
2023/04/30 05:47:13;;;;;;;6.50;5.15;;;;;;;;;;5072407;28;20378;-70
2023/04/30 05:49:40;;;;;;;7.93;4.70;;;;;;;;;;5072014;28;20025;-70
2023/04/30 05:52:05;;;;;;;9.07;5.18;;;;;;;;;;5072278;28;20024;-70
2023/04/30 05:54:31;;;;;;;8.18;5.25;;;;;;;;;;5070858;28;20032;-70
2023/04/30 05:56:57;;;;;;;8.27;4.57;;;;;;;;;;5072216;28;20031;-70
2023/04/30 05:59:23;;;;;;;8.70;4.45;;;;;;;;;;5071646;28;20032;-71
2023/04/30 06:01:49;;;;;;;8.85;4.90;;;;;;;;;;5070866;28;20398;-71
2023/04/30 06:04:14;;;;;;;6.85;4.82;;;;;;;;;;5072124;28;20082;-71
2023/04/30 06:06:40;;;;;;;8.52;5.03;;;;;;;;;;5071968;28;20021;-70
2023/04/30 06:09:06;;;;;;;6.78;4.30;;;;;;;;;;5071499;28;20024;-70
2023/04/30 06:11:32;;;;;;;6.85;4.25;;;;;;;;;;5071694;28;20483;-71
2023/04/30 06:13:58;;;;;;;8.90;4.78;;;;;;;;;;5071682;28;20043;-69
2023/04/30 06:16:23;;;;;;;7.75;4.88;;;;;;;;;;5071731;28;20054;-70
2023/04/30 06:18:49;;;;;;;5.78;4.13;;;;;;;;;;5071630;28;20482;-70
2023/04/30 06:21:15;;;;;;;8.30;5.15;;;;;;;;;;5071422;28;20501;-69
2023/04/30 06:23:40;;;;;;;13.13;5.88;;;;;;;;;;5071504;28;20115;-71
2023/04/30 06:26:06;;;;;;;11.10;5.28;;;;;;;;;;5071363;28;20062;-70
2023/04/30 06:28:32;;;;;;;7.97;4.85;;;;;;;;;;5071280;28;20032;-70
2023/04/30 06:30:58;;;;;;;9.65;5.20;;;;;;;;;;5071409;28;20386;-70
2023/04/30 06:33:23;;;;;;;11.50;5.15;;;;;;;;;;5071412;28;20051;-70
2023/04/30 06:35:54;;;;;;;10.07;4.70;;;;;;;;;;5071058;28;20039;-70
2023/04/30 06:38:20;;;;;;;6.70;4.60;;;;;;;;;;5062848;28;20028;-69
2023/04/30 06:40:45;;;;;;;8.82;5.53;;;;;;;;;;5068017;28;20063;-70
2023/04/30 06:43:11;;;;;;;7.40;4.45;;;;;;;;;;5058263;28;20395;-71
2023/04/30 06:45:38;;;;;;;10.38;4.10;;;;;;;;;;5061745;28;20074;-69
2023/04/30 06:48:04;;;;;;;9.73;4.68;;;;;;;;;;5062765;28;20024;-71
2023/04/30 06:50:29;;;;;;;6.72;4.43;;;;;;;;;;5070946;28;20095;-70
2023/04/30 06:52:55;;;;;;;10.35;4.15;;;;;;;;;;5062842;28;20111;-71
2023/04/30 06:55:21;;;;;;;7.43;4.60;;;;;;;;;;5071653;28;20427;-70
2023/04/30 06:57:47;;;;;;;7.32;4.47;;;;;;;;;;5058366;28;20498;-69
2023/04/30 07:00:16;;;;;;;8.73;4.28;;;;;;;;;;5059267;28;20017;-70
2023/04/30 07:02:41;;;;;;;8.00;4.38;;;;;;;;;;5061620;28;20075;-71
2023/04/30 07:05:08;;;;;;;8.05;3.83;;;;;;;;;;5062752;28;20044;-70
2023/04/30 07:07:34;;;;;;;9.95;4.03;;;;;;;;;;5061569;28;20043;-70
2023/04/30 07:10:01;;;;;;;5.53;3.78;;;;;;;;;;5059796;28;20033;-70
2023/04/30 07:12:26;;;;;;;10.20;6.45;;;;;;;;;;5068018;28;20035;-70
2023/04/30 07:14:52;;;;;;;5.85;3.80;;;;;;;;;;5061643;28;20431;-71
2023/04/30 07:17:18;;;;;;;12.10;7.68;;;;;;;;;;5071265;28;20414;-70
2023/04/30 07:19:44;;;;;;;7.70;3.75;;;;;;;;;;5070666;28;20380;-70
2023/04/30 07:22:10;;;;;;;7.78;3.55;;;;;;;;;;5074075;28;20037;-70
2023/04/30 07:24:35;;;;;;;7.03;3.60;;;;;;;;;;5074719;28;20194;-70
2023/04/30 07:27:01;;;;;;;9.65;3.78;;;;;;;;;;5074479;28;20043;-70
2023/04/30 07:29:28;;;;;;;5.82;3.58;;;;;;;;;;5074493;28;20028;-70
2023/04/30 07:31:55;;;;;;;9.32;3.95;;;;;;;;;;5073336;28;20135;-70
2023/04/30 07:34:21;;;;;;;12.52;3.90;;;;;;;;;;5074631;28;20078;-71
2023/04/30 07:36:50;;;;;;;6.10;3.67;;;;;;;;;;5073197;28;20067;-70
2023/04/30 07:39:16;;;;;;;10.60;3.97;;;;;;;;;;5074112;28;20470;-70
2023/04/30 07:41:42;;;;;;;6.88;3.95;;;;;;;;;;5074523;28;20073;-70
2023/04/30 07:44:08;;;;;;;5.38;3.55;;;;;;;;;;5074436;28;20078;-70
2023/04/30 07:46:35;;;;;;;5.82;3.53;;;;;;;;;;5074009;28;20111;-70
2023/04/30 07:49:01;;;;;;;8.20;4.10;;;;;;;;;;5073303;28;20032;-71
2023/04/30 07:51:27;;;;;;;8.73;3.47;;;;;;;;;;5074144;28;20025;-70
2023/04/30 07:53:53;;;;;;;6.30;3.95;;;;;;;;;;5073864;28;20036;-70
2023/04/30 07:56:20;;;;;;;12.15;3.78;;;;;;;;;;5074094;28;20027;-71
2023/04/30 07:58:46;;;;;;;9.00;4.35;;;;;;;;;;5073983;28;20028;-70
2023/04/30 08:01:12;;;;;;;6.60;3.95;;;;;;;;;;5074078;28;20036;-70
2023/04/30 08:03:37;;;;;;;5.60;3.92;;;;;;;;;;5074121;28;20382;-70
2023/04/30 08:06:04;;;;;;;8.02;3.80;;;;;;;;;;5074292;28;20042;-69
2023/04/30 08:08:30;;;;;;;5.97;3.20;;;;;;;;;;5073907;28;20040;-69
2023/04/30 08:10:56;;;;;;;9.75;4.28;;;;;;;;;;5074215;28;20039;-69
2023/04/30 08:13:21;;;;;;;9.27;4.00;;;;;;;;;;5072826;28;20040;-71
2023/04/30 08:15:47;;;;;;;6.47;3.60;;;;;;;;;;5073841;28;20024;-71
2023/04/30 08:18:13;;;;;;;6.60;3.60;;;;;;;;;;5073790;28;20036;-70
2023/04/30 08:20:38;;;;;;;5.30;3.63;;;;;;;;;;5073790;28;20111;-70
2023/04/30 08:23:04;;;;;;;8.60;3.33;;;;;;;;;;5073970;28;20107;-71
2023/04/30 08:25:31;;;;;;;6.88;3.33;;;;;;;;;;5073705;28;20509;-71
2023/04/30 08:27:56;;;;;;;8.52;3.78;;;;;;;;;;5073682;28;20494;-71
2023/04/30 08:30:22;;;;;;;8.13;3.72;;;;;;;;;;5073566;28;20021;-70
2023/04/30 08:32:48;;;;;;;8.30;3.58;;;;;;;;;;5071503;28;20119;-70
2023/04/30 08:35:15;;;;;;;8.40;3.78;;;;;;;;;;5072035;28;20031;-70
2023/04/30 08:37:41;;;;;;;6.63;3.47;;;;;;;;;;5073111;28;20044;-70
2023/04/30 08:40:10;;;;;;;8.15;3.53;;;;;;;;;;5073630;28;20572;-70
2023/04/30 08:42:40;;;;;;;9.98;3.67;;;;;;;;;;5073259;28;20047;-70
2023/04/30 08:45:10;;;;;;;5.13;3.80;;;;;;;;;;5073255;28;20048;-70
2023/04/30 08:47:37;;;;;;;5.50;3.28;;;;;;;;;;5073202;28;20530;-71
2023/04/30 08:50:04;;;;;;;10.90;3.90;;;;;;;;;;5071782;28;20051;-69
2023/04/30 08:52:32;;;;;;;7.53;3.53;;;;;;;;;;5073096;28;20032;-70
2023/04/30 08:55:00;;;;;;;5.70;3.72;;;;;;;;;;5073232;28;20127;-70
2023/04/30 08:57:26;;;;;;;10.57;3.80;;;;;;;;;;5073289;28;20064;-70
2023/04/30 08:59:55;;;;;;;6.30;3.47;;;;;;;;;;5072940;28;20036;-69
2023/04/30 09:02:21;;;;;;;7.32;4.13;;;;;;;;;;5072699;28;20032;-70
2023/04/30 09:04:48;;;;;;;10.70;3.88;;;;;;;;;;5072787;28;20116;-70
2023/04/30 09:07:14;;;;;;;12.85;4.07;;;;;;;;;;5072874;28;20044;-69
2023/04/30 09:09:40;;;;;;;5.00;3.30;;;;;;;;;;5072934;28;20082;-70
2023/04/30 09:12:19;;;;;;;6.05;3.90;;;;;;;;;;5072719;28;20474;-70
2023/04/30 09:14:58;;;;;;;10.55;4.80;;;;;;;;;;5072802;28;20102;-70
2023/04/30 09:17:25;;;;;;;7.82;3.97;;;;;;;;;;5072422;28;20089;-70
2023/04/30 09:19:51;;;;;;;7.85;3.75;;;;;;;;;;5072818;28;20493;-70
2023/04/30 09:22:19;;;;;;;9.13;3.58;;;;;;;;;;5071369;28;20094;-70
2023/04/30 09:24:48;;;;;;;7.47;4.00;;;;;;;;;;5072742;28;20157;-70
2023/04/30 09:27:23;;;;;;;7.05;4.13;;;;;;;;;;5072196;28;20123;-70
2023/04/30 09:29:49;;;;;;;10.65;4.10;;;;;;;;;;5072043;28;20024;-70
2023/04/30 09:32:15;;;;;;;7.43;4.10;;;;;;;;;;5070983;28;20031;-71
2023/04/30 09:34:42;;;;;;;5.85;3.70;;;;;;;;;;5072474;28;20033;-70
2023/04/30 09:37:08;;;;;;;6.47;3.75;;;;;;;;;;5072498;28;20455;-70
2023/04/30 09:39:45;;;;;;;5.68;3.72;;;;;;;;;;5071911;28;20043;-70
2023/04/30 09:42:11;;;;;;;6.88;3.80;;;;;;;;;;5072197;28;20046;-70
2023/04/30 09:44:39;;;;;;;7.38;3.47;;;;;;;;;;5071778;28;20111;-72
2023/04/30 09:47:12;;;;;;;7.60;3.70;;;;;;;;;;5071832;28;20036;-70
2023/04/30 09:49:40;;;;;;;11.23;3.92;;;;;;;;;;5071859;28;20039;-70
2023/04/30 09:52:07;;;;;;;8.68;4.15;;;;;;;;;;5070392;28;20028;-70
2023/04/30 09:54:34;;;;;;;5.40;3.33;;;;;;;;;;5070845;28;20047;-70
2023/04/30 09:57:02;;;;;;;5.70;3.92;;;;;;;;;;5071811;28;20574;-70
2023/04/30 09:59:35;;;;;;;5.82;3.45;;;;;;;;;;5071828;28;20032;-71
2023/04/30 10:02:02;;;;;;;10.63;3.55;;;;;;;;;;5071545;28;20405;-71
2023/04/30 10:04:38;;;;;;;15.77;4.10;;;;;;;;;;5072043;28;20366;-70
2023/04/30 10:07:19;;;;;;;7.68;4.90;;;;;;;;;;5070782;28;20038;-70
2023/04/30 10:09:58;;;;;;;15.70;7.65;;;;;;;;;;5070304;28;20135;-71
2023/04/30 10:12:29;;;;;;;5.25;3.40;;;;;;;;;;5071786;28;20036;-70
2023/04/30 10:15:04;;;;;;;6.25;3.80;;;;;;;;;;5070627;28;20048;-70
2023/04/30 10:17:35;;;;;;;11.45;3.92;;;;;;;;;;5071736;28;20066;-70
2023/04/30 10:20:06;;;;;;;15.27;8.50;;;;;;;;;;5071419;28;20035;-70
2023/04/30 10:22:35;;;;;;;6.47;3.92;;;;;;;;;;5072056;28;20111;-70
2023/04/30 10:25:02;;;;;;;5.53;3.10;;;;;;;;;;5071388;28;20032;-71
2023/04/30 10:27:32;;;;;;;5.65;3.13;;;;;;;;;;5071632;28;20102;-71
2023/04/30 10:29:58;;;;;;;8.15;3.58;;;;;;;;;;5071423;28;20041;-71
2023/04/30 10:32:32;;;;;;;7.65;3.83;;;;;;;;;;5070050;28;20033;-71
2023/04/30 10:35:18;;;;;;;7.25;3.92;;;;;;;;;;5071462;28;20040;-70
2023/04/30 10:37:53;;;;;;;8.07;3.63;;;;;;;;;;5071069;28;20044;-70
2023/04/30 10:40:19;;;;;;;8.32;3.28;;;;;;;;;;5071477;28;20076;-70
2023/04/30 10:42:47;;;;;;;5.20;3.45;;;;;;;;;;5071482;28;20071;-70
2023/04/30 10:45:15;;;;;;;7.93;3.45;;;;;;;;;;5071656;28;20093;-71
2023/04/30 10:47:47;;;;;;;6.15;3.25;;;;;;;;;;5071586;28;20021;-71
2023/04/30 10:50:12;;;;;;;7.67;3.77;;;;;;;;;;5071430;28;20111;-70
2023/04/30 10:52:39;;;;;;;9.82;3.90;;;;;;;;;;5071296;28;20124;-70
2023/04/30 10:55:08;;;;;;;8.73;3.40;;;;;;;;;;5071397;28;20062;-71
2023/04/30 10:57:42;;;;;;;6.43;3.30;;;;;;;;;;5075193;28;20111;-70
2023/04/30 11:00:11;;;;;;;9.95;5.18;;;;;;;;;;5075021;28;20024;-70
2023/04/30 11:02:39;;;;;;;10.23;3.30;;;;;;;;;;5075320;28;20040;-71
2023/04/30 11:05:05;;;;;;;5.95;4.00;;;;;;;;;;5075487;28;20446;-71
2023/04/30 11:07:32;;;;;;;8.43;4.43;;;;;;;;;;5075122;28;20155;-70
2023/04/30 11:10:00;;;;;;;5.90;3.75;;;;;;;;;;5074643;28;20028;-70
2023/04/30 11:12:29;;;;;;;5.38;3.42;;;;;;;;;;5075079;28;20513;-71
2023/04/30 11:15:11;;;;;;;9.00;3.22;;;;;;;;;;5074959;28;20033;-71
2023/04/30 11:17:37;;;;;;;7.65;3.65;;;;;;;;;;5074964;28;20486;-70
2023/04/30 11:20:03;;;;;;;6.80;3.42;;;;;;;;;;5074753;28;20489;-70
2023/04/30 11:22:34;;;;;;;6.18;3.17;;;;;;;;;;5074831;28;20039;-70
2023/04/30 11:25:11;;;;;;;5.72;3.88;;;;;;;;;;5074833;28;20047;-70
2023/04/30 11:27:43;;;;;;;5.50;3.30;;;;;;;;;;5075015;28;20387;-70
2023/04/30 11:30:16;;;;;;;5.13;3.10;;;;;;;;;;5074669;28;20035;-71
2023/04/30 11:32:47;;;;;;;5.95;4.30;;;;;;;;;;5074659;28;20052;-71
2023/04/30 11:35:17;;;;;;;7.68;3.17;;;;;;;;;;5074645;28;20115;-71
2023/04/30 11:37:43;;;;;;;5.75;3.10;;;;;;;;;;5074866;28;20029;-71
2023/04/30 11:40:11;;;;;;;6.45;3.50;;;;;;;;;;5074670;28;20454;-71
2023/04/30 11:42:47;;;;;;;5.85;2.97;;;;;;;;;;5074806;28;20040;-70
2023/04/30 11:45:16;;;;;;;5.15;2.83;;;;;;;;;;5074404;28;20527;-71
2023/04/30 11:47:50;;;;;;;6.05;3.03;;;;;;;;;;5074635;28;20031;-70
2023/04/30 11:50:18;;;;;;;4.85;2.92;;;;;;;;;;5074714;28;20327;-70
2023/04/30 11:52:54;;;;;;;16.33;9.23;;;;;;;;;;5074767;28;20132;-70
2023/04/30 11:55:21;;;;;;;8.70;4.82;;;;;;;;;;5074539;28;20039;-70
2023/04/30 11:57:50;;;;;;;5.05;3.60;;;;;;;;;;5072875;28;20031;-71
2023/04/30 12:00:20;;;;;;;6.43;3.72;;;;;;;;;;5074440;28;20032;-70
2023/04/30 12:02:48;;;;;;;5.18;3.20;;;;;;;;;;5074426;28;20036;-71
2023/04/30 12:05:15;;;;;;;8.48;3.10;;;;;;;;;;5074439;28;20479;-71
2023/04/30 12:07:59;;;;;;;6.85;3.40;;;;;;;;;;5073574;28;20119;-72
2023/04/30 12:10:24;;;;;;;8.07;3.17;;;;;;;;;;5074487;28;20056;-70
2023/04/30 12:12:51;;;;;;;5.50;3.03;;;;;;;;;;5074134;28;20091;-70
2023/04/30 12:15:22;;;;;;;7.10;2.85;;;;;;;;;;5074145;28;20047;-71
2023/04/30 12:17:47;;;;;;;6.30;2.85;;;;;;;;;;5074066;28;20040;-70
2023/04/30 12:20:15;;;;;;;7.13;3.40;;;;;;;;;;5073797;28;20021;-70
2023/04/30 12:22:42;;;;;;;4.15;2.70;;;;;;;;;;5072752;28;20055;-70
2023/04/30 12:25:12;;;;;;;6.55;3.08;;;;;;;;;;5073917;28;20046;-71
2023/04/30 12:27:46;;;;;;;6.45;2.90;;;;;;;;;;5073639;28;20048;-70
2023/04/30 12:30:12;;;;;;;5.72;2.58;;;;;;;;;;5073694;28;20033;-71
2023/04/30 12:32:47;;;;;;;4.93;2.65;;;;;;;;;;5073752;28;20021;-70
2023/04/30 12:35:18;;;;;;;4.70;2.60;;;;;;;;;;5073685;28;20032;-71
2023/04/30 12:37:46;;;;;;;4.70;2.95;;;;;;;;;;5073965;28;20040;-70
2023/04/30 12:40:13;;;;;;;7.43;3.53;;;;;;;;;;5073666;28;20032;-71
2023/04/30 12:42:40;;;;;;;5.10;2.72;;;;;;;;;;5074097;28;20040;-70
2023/04/30 12:45:07;;;;;;;6.85;3.05;;;;;;;;;;5073825;28;20115;-71
2023/04/30 12:47:38;;;;;;;6.50;2.88;;;;;;;;;;5074219;28;20045;-71
2023/04/30 12:50:10;;;;;;;5.30;2.63;;;;;;;;;;5073813;28;20074;-70
2023/04/30 12:52:36;;;;;;;4.13;2.80;;;;;;;;;;5072610;28;20112;-71
2023/04/30 12:55:19;;;;;;;16.20;10.02;;;;;;;;;;5073871;28;20584;-70
2023/04/30 12:58:05;;;;;;;9.02;3.03;;;;;;;;;;5073870;28;20040;-70
2023/04/30 13:00:48;;;;;;;6.80;2.97;;;;;;;;;;5073181;28;20090;-71
2023/04/30 13:03:16;;;;;;;6.60;2.78;;;;;;;;;;5073180;28;20032;-71
2023/04/30 13:05:54;;;;;;;4.90;2.42;;;;;;;;;;5073127;28;20043;-70
2023/04/30 13:08:20;;;;;;;7.18;3.00;;;;;;;;;;5073218;28;20278;-71
2023/04/30 13:10:47;;;;;;;9.45;3.70;;;;;;;;;;5073031;28;20406;-70
2023/04/30 13:13:15;;;;;;;8.00;4.00;;;;;;;;;;5072978;28;20036;-69
2023/04/30 13:15:42;;;;;;;7.13;3.83;;;;;;;;;;5072884;28;20035;-70
2023/04/30 13:18:08;;;;;;;5.32;2.58;;;;;;;;;;5071833;28;20032;-70
2023/04/30 13:20:35;;;;;;;7.95;2.80;;;;;;;;;;5072469;28;20032;-70
2023/04/30 13:23:00;;;;;;;4.63;3.15;;;;;;;;;;5071297;28;20090;-70
2023/04/30 13:25:26;;;;;;;6.03;2.75;;;;;;;;;;5072428;28;20437;-70
2023/04/30 13:27:52;;;;;;;7.07;2.80;;;;;;;;;;5072262;28;20120;-71
2023/04/30 13:30:18;;;;;;;5.07;2.78;;;;;;;;;;5070275;28;20109;-70
2023/04/30 13:32:44;;;;;;;4.43;2.78;;;;;;;;;;5071764;28;20028;-70
2023/04/30 13:35:10;;;;;;;4.75;2.53;;;;;;;;;;5072209;28;20028;-71
2023/04/30 13:37:37;;;;;;;3.42;2.20;;;;;;;;;;5071957;28;20482;-70
2023/04/30 13:40:08;;;;;;;3.30;2.28;;;;;;;;;;5071880;28;20062;-71
2023/04/30 13:42:37;;;;;;;4.38;2.55;;;;;;;;;;5071909;28;20048;-70
2023/04/30 13:45:05;;;;;;;4.00;2.55;;;;;;;;;;5071826;28;20028;-70
2023/04/30 13:47:31;;;;;;;3.75;2.28;;;;;;;;;;5068251;28;20070;-70
2023/04/30 13:49:57;;;;;;;5.13;2.30;;;;;;;;;;5071608;28;20024;-71
2023/04/30 13:52:22;;;;;;;4.60;2.00;;;;;;;;;;5071639;28;20444;-70
2023/04/30 13:54:48;;;;;;;4.18;2.10;;;;;;;;;;5071857;28;20025;-70
2023/04/30 13:57:14;;;;;;;4.38;2.55;;;;;;;;;;5072088;28;20402;-70
2023/04/30 13:59:40;;;;;;;5.18;2.35;;;;;;;;;;5071427;28;20524;-69
2023/04/30 14:02:06;;;;;;;4.88;2.38;;;;;;;;;;5071740;28;20409;-70
2023/04/30 14:04:31;;;;;;;5.10;2.47;;;;;;;;;;5071611;28;20074;-70
2023/04/30 14:06:57;;;;;;;3.08;2.55;;;;;;;;;;5071240;28;20116;-70
2023/04/30 14:09:23;;;;;;;3.60;2.47;;;;;;;;;;5070833;28;20021;-70
2023/04/30 14:11:49;;;;;;;7.00;2.72;;;;;;;;;;5071898;28;20063;-70
2023/04/30 14:14:14;;;;;;;3.42;2.70;;;;;;;;;;5071592;28;20043;-70
2023/04/30 14:16:41;;;;;;;5.18;3.00;;;;;;;;;;5071716;28;20041;-70
2023/04/30 14:19:06;;;;;;;4.90;2.83;;;;;;;;;;5071453;28;20565;-71
2023/04/30 14:21:33;;;;;;;5.22;2.67;;;;;;;;;;5071272;28;20044;-71
2023/04/30 14:23:58;;;;;;;4.15;2.88;;;;;;;;;;5071574;28;20036;-71
2023/04/30 14:26:24;;;;;;;3.80;2.72;;;;;;;;;;5071516;28;20051;-70
2023/04/30 14:28:50;;;;;;;6.20;3.10;;;;;;;;;;5071030;28;20023;-70
2023/04/30 14:31:16;;;;;;;3.70;3.13;;;;;;;;;;5070768;28;20035;-71
2023/04/30 14:33:41;;;;;;;10.73;2.95;;;;;;;;;;5071176;28;20450;-70
2023/04/30 14:36:07;;;;;;;6.65;2.75;;;;;;;;;;5069673;28;20060;-70
2023/04/30 14:38:32;;;;;;;7.20;3.60;;;;;;;;;;5070956;28;20028;-71
2023/04/30 14:40:59;;;;;;;6.75;4.22;;;;;;;;;;5070021;28;20505;-71
2023/04/30 14:43:25;;;;;;;6.28;4.00;;;;;;;;;;5069618;28;20036;-71